Bridge of Allan, United Kingdom
Current Conditions -  °F | °C
As of 8:20 AM on Thursday 29 Jan 2015 (Local Time) from EGPH Reporting Station
Few Clouds Few Clouds  
Wind Chill: 21°   Ceiling: Unl
Heat Index: 30°   Visibility: 6mi
Dew Point: 27°   Wind: 12mph
Humidity: 86%   Direction: 250°WSW
Pressure: 28.79"   Gusts: NA
Location:  56.15°N, 3.95°W
Report Text: EGPH 290820Z 25010KT 9999 FEW042 M01/M03 Q0975
Loading
Personal Weather Stations






























Interactive Weather Map New forecast layout! Learn more

10-Day Weather Forecast

Advertisements
Track Severe Weather on mobile